createdAt,value
2022-12-03T00:00:19.144Z,102036.66
2022-12-03T00:02:46.237Z,102033.19
2022-12-03T00:05:13.617Z,102038.34
2022-12-03T00:07:40.959Z,102031.53
2022-12-03T00:10:12.898Z,102033.25
2022-12-03T00:12:39.931Z,102023.00
2022-12-03T00:15:10.085Z,102014.44
2022-12-03T00:17:37.753Z,102023.84
2022-12-03T00:20:11.675Z,102023.00
2022-12-03T00:22:38.730Z,102026.41
2022-12-03T00:25:06.937Z,102024.66
2022-12-03T00:27:33.911Z,102023.84
2022-12-03T00:30:01.220Z,102017.88
2022-12-03T00:32:28.319Z,102023.00
2022-12-03T00:34:55.744Z,102030.69
2022-12-03T00:37:23.016Z,102023.91
2022-12-03T00:39:53.081Z,102023.00
2022-12-03T00:42:20.161Z,102022.13
2022-12-03T00:44:47.509Z,102022.16
2022-12-03T00:47:15.095Z,102011.91
2022-12-03T00:49:42.510Z,102016.94
2022-12-03T00:52:09.905Z,102017.88
2022-12-03T00:54:53.998Z,102009.31
2022-12-03T00:57:21.201Z,102008.47
2022-12-03T00:59:50.918Z,102011.03
2022-12-03T01:02:44.254Z,102011.88
2022-12-03T01:05:11.462Z,102014.50
2022-12-03T01:07:38.883Z,102017.06
2022-12-03T01:10:15.896Z,102018.72
2022-12-03T01:12:42.969Z,102011.03
2022-12-03T01:15:13.020Z,102017.03
2022-12-03T01:17:40.216Z,102013.59
2022-12-03T01:20:10.407Z,102008.47
2022-12-03T01:22:39.455Z,102016.22
2022-12-03T01:25:10.256Z,102020.44
2022-12-03T01:28:02.344Z,102013.66
2022-12-03T01:31:05.847Z,102015.38
2022-12-03T01:33:32.873Z,102014.50
2022-12-03T01:36:07.592Z,102013.59
2022-12-03T01:38:35.449Z,102009.31
2022-12-03T01:41:18.917Z,102011.03
2022-12-03T01:43:46.711Z,102004.19
2022-12-03T01:46:22.889Z,102010.16
2022-12-03T01:48:59.278Z,102017.06
2022-12-03T01:51:30.516Z,102010.22
2022-12-03T01:54:00.510Z,102007.66
2022-12-03T01:56:28.065Z,102006.81
2022-12-03T01:58:55.079Z,102010.22
2022-12-03T02:01:22.210Z,101998.25
2022-12-03T02:03:49.585Z,102004.25
2022-12-03T02:06:33.246Z,102002.53
2022-12-03T02:09:00.902Z,102001.63
2022-12-03T02:11:36.885Z,101998.25
2022-12-03T02:14:14.021Z,102001.63
2022-12-03T02:16:42.761Z,101995.69
2022-12-03T02:19:27.853Z,102005.09
2022-12-03T02:22:33.104Z,102002.50
2022-12-03T02:25:19.431Z,101999.94
2022-12-03T02:27:48.325Z,102002.53
2022-12-03T02:30:21.036Z,101998.25
2022-12-03T02:32:49.632Z,102000.03
2022-12-03T02:35:37.322Z,102006.81
2022-12-03T02:38:28.023Z,102007.63
2022-12-03T02:41:01.272Z,102003.38
2022-12-03T02:43:28.662Z,102000.81
2022-12-03T02:45:59.952Z,102000.81
2022-12-03T02:48:34.741Z,102002.50
2022-12-03T02:51:07.183Z,102004.19
2022-12-03T02:53:44.963Z,102008.53
2022-12-03T02:56:22.351Z,102003.38
2022-12-03T02:59:01.225Z,101999.94
2022-12-03T03:01:28.551Z,102002.47
2022-12-03T03:03:59.455Z,101999.09
2022-12-03T03:06:26.711Z,101999.09
2022-12-03T03:08:57.451Z,101994.78
2022-12-03T03:11:25.060Z,101998.25
2022-12-03T03:16:55.949Z,101994.84
2022-12-03T03:19:30.850Z,101990.63
2022-12-03T03:21:58.151Z,101993.94
2022-12-03T03:24:32.314Z,101993.06
2022-12-03T03:27:13.112Z,101992.28
2022-12-03T03:29:43.278Z,101995.72
2022-12-03T03:32:10.383Z,101982.03
2022-12-03T03:34:37.703Z,101986.28
2022-12-03T03:37:23.436Z,101987.09
2022-12-03T03:39:53.911Z,101982.88
2022-12-03T03:42:21.111Z,101976.03
2022-12-03T03:44:50.668Z,101977.69
2022-12-03T03:47:20.474Z,101971.75
2022-12-03T03:49:50.546Z,101973.41
2022-12-03T03:52:22.272Z,101975.97
2022-12-03T03:54:49.552Z,101962.34
2022-12-03T03:57:19.473Z,101970.84
2022-12-03T03:59:46.845Z,101963.22
2022-12-03T04:02:24.615Z,101964.94
2022-12-03T04:04:52.898Z,101961.50
2022-12-03T04:07:20.672Z,101964.06
2022-12-03T04:09:47.633Z,101952.16
2022-12-03T04:12:40.834Z,101958.88
2022-12-03T04:15:09.235Z,101959.78
2022-12-03T04:17:37.001Z,101962.34
2022-12-03T04:20:05.614Z,101952.94
2022-12-03T04:22:41.706Z,101953.81
2022-12-03T04:25:41.697Z,101943.53
2022-12-03T04:28:28.228Z,101953.81
2022-12-03T04:30:58.589Z,101945.25
2022-12-03T04:33:44.560Z,101940.16
2022-12-03T04:36:11.616Z,101944.41
2022-12-03T04:38:52.153Z,101948.69
2022-12-03T04:41:25.073Z,101951.25
2022-12-03T04:44:10.607Z,101940.13
2022-12-03T04:46:37.817Z,101951.25
2022-12-03T04:49:04.957Z,101946.13
2022-12-03T04:51:34.944Z,101946.13
2022-12-03T04:54:05.968Z,101941.00
2022-12-03T04:56:33.101Z,101939.34
2022-12-03T04:59:00.132Z,101935.91
2022-12-03T05:01:30.416Z,101941.84
2022-12-03T05:03:58.006Z,101939.28
2022-12-03T05:06:25.055Z,101938.41
2022-12-03T05:08:52.444Z,101939.28
2022-12-03T05:11:19.506Z,101929.03
2022-12-03T05:13:46.476Z,101932.44
2022-12-03T05:16:13.602Z,101929.00
2022-12-03T05:18:40.723Z,101923.03
2022-12-03T05:21:07.831Z,101924.75
2022-12-03T05:23:34.824Z,101920.47
2022-12-03T05:26:01.788Z,101924.72
2022-12-03T05:28:29.082Z,101927.28
2022-12-03T05:30:58.693Z,101923.03
2022-12-03T05:33:25.969Z,101918.78
2022-12-03T05:35:53.104Z,101919.63
2022-12-03T05:38:20.767Z,101919.63
2022-12-03T05:40:47.967Z,101931.59
2022-12-03T05:43:14.945Z,101926.44
2022-12-03T05:45:45.992Z,101925.59
2022-12-03T05:48:16.771Z,101928.97
2022-12-03T05:50:45.945Z,101922.19
2022-12-03T05:53:15.040Z,101923.03
2022-12-03T05:55:42.455Z,101915.34
2022-12-03T05:58:09.863Z,101918.84
2022-12-03T06:00:42.422Z,101917.97
2022-12-03T06:03:10.829Z,101917.06
2022-12-03T06:05:38.442Z,101913.63
2022-12-03T06:08:07.587Z,101915.44
2022-12-03T06:10:34.842Z,101921.38
2022-12-03T06:13:03.153Z,101915.41
2022-12-03T06:15:30.461Z,101910.22
2022-12-03T06:17:58.144Z,101919.69
2022-12-03T06:20:25.444Z,101914.63
2022-12-03T06:22:52.427Z,101915.41
2022-12-03T06:25:19.464Z,101923.13
2022-12-03T06:27:46.533Z,101922.25
2022-12-03T06:30:14.832Z,101911.97
2022-12-03T06:32:42.023Z,101917.97
2022-12-03T06:35:09.737Z,101922.25
2022-12-03T06:37:36.816Z,101917.19
2022-12-03T06:40:04.696Z,101919.69
2022-12-03T06:42:31.661Z,101921.38
2022-12-03T06:45:01.755Z,101923.94
2022-12-03T06:47:28.711Z,101921.41
2022-12-03T06:49:55.657Z,101919.72
2022-12-03T06:52:22.752Z,101917.13
2022-12-03T06:54:49.716Z,101918.84
2022-12-03T06:57:19.394Z,101913.78
2022-12-03T06:59:46.357Z,101920.63
2022-12-03T07:02:13.473Z,101922.34
2022-12-03T07:04:56.072Z,101911.28
2022-12-03T07:07:23.467Z,101913.78
2022-12-03T07:09:51.026Z,101918.03
2022-12-03T07:12:18.069Z,101920.63
2022-12-03T07:14:45.085Z,101912.97
2022-12-03T07:17:12.044Z,101917.22
2022-12-03T07:19:39.663Z,101915.53
2022-12-03T07:22:06.832Z,101921.47
2022-12-03T07:24:33.957Z,101912.06
2022-12-03T07:27:01.122Z,101917.28
2022-12-03T07:29:28.221Z,101914.69
2022-12-03T07:31:55.281Z,101910.41
2022-12-03T07:34:22.348Z,101919.81
2022-12-03T07:36:49.501Z,101911.22
2022-12-03T07:39:16.555Z,101914.69
2022-12-03T07:41:43.696Z,101914.69
2022-12-03T07:44:14.273Z,101913.78
2022-12-03T07:47:08.586Z,101913.00
2022-12-03T07:49:35.587Z,101916.34
2022-12-03T07:52:02.607Z,101918.06
2022-12-03T07:54:29.573Z,101918.06
2022-12-03T07:57:01.110Z,101912.94
2022-12-03T07:59:29.515Z,101915.59
2022-12-03T08:01:56.697Z,101924.03
2022-12-03T08:04:23.765Z,101914.69
2022-12-03T08:06:50.743Z,101908.75
2022-12-03T08:09:17.712Z,101910.44
2022-12-03T08:11:48.558Z,101899.38
2022-12-03T08:14:19.613Z,101903.53
2022-12-03T08:16:48.273Z,101905.25
2022-12-03T08:19:18.328Z,101904.38
2022-12-03T08:21:45.541Z,101899.25
2022-12-03T08:24:21.581Z,101901.81
2022-12-03T08:26:49.831Z,101898.34
2022-12-03T08:29:20.358Z,101898.34
2022-12-03T08:31:55.406Z,101903.50
2022-12-03T08:34:28.159Z,101898.31
2022-12-03T08:37:19.592Z,101896.63
2022-12-03T08:39:50.606Z,101894.13
2022-12-03T08:42:48.160Z,101898.38
2022-12-03T08:45:34.949Z,101891.50
2022-12-03T08:48:33.032Z,101894.97
2022-12-03T08:51:26.526Z,101891.63
2022-12-03T08:54:04.525Z,101888.94
2022-12-03T08:56:35.972Z,101896.59
2022-12-03T08:59:30.897Z,101893.19
2022-12-03T09:01:59.717Z,101894.06
2022-12-03T09:04:45.754Z,101896.56
2022-12-03T09:07:12.833Z,101891.50
2022-12-03T09:09:40.180Z,101890.66
2022-12-03T09:12:07.397Z,101896.56
2022-12-03T09:14:34.542Z,101893.13
2022-12-03T09:17:01.674Z,101893.97
2022-12-03T09:19:31.064Z,101888.03
2022-12-03T09:21:58.176Z,101883.72
2022-12-03T09:24:25.245Z,101884.50
2022-12-03T09:26:52.306Z,101886.22
2022-12-03T09:29:19.387Z,101880.22
2022-12-03T09:31:46.572Z,101881.91
2022-12-03T09:34:13.685Z,101874.22
2022-12-03T09:36:40.913Z,101877.66
2022-12-03T09:39:07.914Z,101884.41
2022-12-03T09:41:37.468Z,101877.63
2022-12-03T09:44:05.770Z,101880.00
2022-12-03T09:46:35.782Z,101877.47
2022-12-03T09:49:10.777Z,101872.31
2022-12-03T09:51:41.274Z,101876.59
2022-12-03T09:54:10.212Z,101869.72
2022-12-03T09:56:38.308Z,101866.28
2022-12-03T09:59:15.173Z,101861.94
2022-12-03T10:01:42.334Z,101854.19
2022-12-03T10:04:09.836Z,101853.91
2022-12-03T10:06:43.980Z,101857.53
2022-12-03T10:09:17.488Z,101845.56
2022-12-03T10:11:44.771Z,101848.94
2022-12-03T10:14:14.647Z,101843.06
2022-12-03T10:16:42.274Z,101839.66
2022-12-03T10:19:44.937Z,101843.03
2022-12-03T10:22:11.963Z,101846.81
2022-12-03T10:24:39.196Z,101844.59
2022-12-03T10:27:30.300Z,101842.13
2022-12-03T10:30:01.171Z,101832.72
2022-12-03T10:32:50.923Z,101832.69
2022-12-03T10:35:45.459Z,101835.31
2022-12-03T10:38:18.117Z,101829.41
2022-12-03T10:40:45.986Z,101831.72
2022-12-03T10:43:25.735Z,101830.03
2022-12-03T10:46:16.796Z,101824.16
2022-12-03T10:48:44.071Z,101821.50
2022-12-03T10:51:22.722Z,101826.69
2022-12-03T10:53:50.595Z,101822.50
2022-12-03T10:56:36.534Z,101825.84
2022-12-03T10:59:03.809Z,101820.84
2022-12-03T11:01:32.257Z,101825.09
2022-12-03T11:04:04.993Z,101814.72
2022-12-03T11:06:34.820Z,101819.63
2022-12-03T11:09:08.771Z,101818.28
2022-12-03T11:11:37.632Z,101815.72
2022-12-03T11:14:06.135Z,101808.06
2022-12-03T11:16:42.904Z,101811.91
2022-12-03T11:19:12.926Z,101805.22
2022-12-03T11:22:05.940Z,101801.94
2022-12-03T11:24:39.068Z,101793.31
2022-12-03T11:27:12.918Z,101789.03
2022-12-03T11:29:54.500Z,101795.03
2022-12-03T11:32:40.359Z,101789.66
2022-12-03T11:35:25.169Z,101786.38
2022-12-03T11:37:52.560Z,101784.78
2022-12-03T11:40:19.304Z,101778.66
2022-12-03T11:42:48.593Z,101772.00
2022-12-03T11:45:36.543Z,101769.41
2022-12-03T11:48:14.833Z,101775.28
2022-12-03T11:50:53.125Z,101767.56
2022-12-03T11:53:27.263Z,101768.63
2022-12-03T11:56:10.268Z,101772.81
2022-12-03T11:58:42.552Z,101769.44
2022-12-03T12:01:09.984Z,101770.00
2022-12-03T12:03:50.721Z,101769.34
2022-12-03T12:06:21.309Z,101770.78
2022-12-03T12:08:51.099Z,101767.53
2022-12-03T12:11:43.561Z,101767.59
2022-12-03T12:14:13.697Z,101766.00
2022-12-03T12:16:53.619Z,101763.25
2022-12-03T12:19:41.219Z,101770.78
2022-12-03T12:22:24.921Z,101767.53
2022-12-03T12:25:03.316Z,101771.78
2022-12-03T12:27:39.256Z,101767.59
2022-12-03T12:30:19.880Z,101770.88
2022-12-03T12:33:16.432Z,101767.44
2022-12-03T12:35:43.437Z,101763.38
2022-12-03T12:38:24.192Z,101764.25
2022-12-03T12:40:51.324Z,101761.66
2022-12-03T12:43:30.827Z,101757.38
2022-12-03T12:46:38.670Z,101754.81
2022-12-03T12:48:59.553Z,101760.66
2022-12-03T12:51:27.060Z,101763.84
2022-12-03T12:53:54.093Z,101755.66
2022-12-03T12:56:31.945Z,101748.03
2022-12-03T12:59:16.251Z,101745.34
2022-12-03T13:01:46.345Z,101745.59
2022-12-03T13:04:24.028Z,101748.84
2022-12-03T13:06:54.664Z,101744.53
2022-12-03T13:09:26.026Z,101741.31
2022-12-03T13:12:03.793Z,101733.59
2022-12-03T13:14:36.533Z,101734.44
2022-12-03T13:17:24.208Z,101727.59
2022-12-03T13:20:00.432Z,101735.31
2022-12-03T13:22:32.301Z,101730.91
2022-12-03T13:25:58.170Z,101725.84
2022-12-03T13:28:24.348Z,101729.47
2022-12-03T13:30:51.525Z,101726.91
2022-12-03T13:33:31.147Z,101721.75
2022-12-03T13:35:58.277Z,101728.66
2022-12-03T13:38:25.840Z,101719.09
2022-12-03T13:41:02.517Z,101725.06
2022-12-03T13:43:32.764Z,101716.63
2022-12-03T13:46:00.516Z,101712.31
2022-12-03T13:48:36.643Z,101715.66
2022-12-03T13:51:32.795Z,101709.53
2022-12-03T13:54:00.472Z,101707.22
2022-12-03T13:56:32.647Z,101706.31
2022-12-03T13:59:01.649Z,101716.53
2022-12-03T14:01:29.781Z,101709.03
2022-12-03T14:03:57.220Z,101715.66
2022-12-03T14:06:24.601Z,101721.59
2022-12-03T14:08:51.635Z,101709.00
2022-12-03T14:11:37.159Z,101713.09
2022-12-03T14:14:04.205Z,101713.25
2022-12-03T14:16:31.461Z,101716.66
2022-12-03T14:18:58.480Z,101718.25
2022-12-03T14:21:26.054Z,101708.22
2022-12-03T14:23:53.070Z,101711.63
2022-12-03T14:26:20.049Z,101703.84
2022-12-03T14:28:47.004Z,101712.31
2022-12-03T14:31:14.058Z,101709.81
2022-12-03T14:33:41.093Z,101713.19
2022-12-03T14:36:08.581Z,101705.63
2022-12-03T14:38:35.555Z,101713.31
2022-12-03T14:41:02.711Z,101705.69
2022-12-03T14:43:29.940Z,101701.50
2022-12-03T14:45:56.948Z,101701.34
2022-12-03T14:48:23.958Z,101701.34
2022-12-03T14:50:50.925Z,101709.88
2022-12-03T14:53:20.521Z,101706.41
2022-12-03T14:55:50.213Z,101709.06
2022-12-03T14:58:17.497Z,101717.59
2022-12-03T15:00:44.449Z,101713.31
2022-12-03T15:03:11.456Z,101719.31
2022-12-03T15:05:38.534Z,101723.50
2022-12-03T15:08:05.697Z,101716.59
2022-12-03T15:10:35.673Z,101718.44
2022-12-03T15:13:02.654Z,101721.94
2022-12-03T15:15:29.786Z,101722.63
2022-12-03T15:17:56.760Z,101723.50
2022-12-03T15:20:23.747Z,101720.06
2022-12-03T15:22:50.744Z,101717.50
2022-12-03T15:25:24.440Z,101714.94
2022-12-03T15:27:51.755Z,101715.78
2022-12-03T15:30:20.580Z,101715.75
2022-12-03T15:32:47.615Z,101711.47
2022-12-03T15:35:18.346Z,101713.13
2022-12-03T15:37:45.933Z,101714.78
2022-12-03T15:40:13.849Z,101716.59
2022-12-03T15:42:40.996Z,101716.50
2022-12-03T15:45:14.821Z,101713.16
2022-12-03T15:47:42.246Z,101715.72
2022-12-03T15:50:10.216Z,101708.91
2022-12-03T15:52:37.298Z,101711.44
2022-12-03T15:55:05.049Z,101714.78
2022-12-03T15:57:32.144Z,101721.50
2022-12-03T15:59:59.215Z,101708.81
2022-12-03T16:02:26.940Z,101712.22
2022-12-03T16:04:54.002Z,101708.00
2022-12-03T16:07:21.046Z,101719.91
2022-12-03T16:09:48.192Z,101717.34
2022-12-03T16:12:15.449Z,101709.75
2022-12-03T16:14:42.449Z,101705.53
2022-12-03T16:17:09.513Z,101707.19
2022-12-03T16:19:36.606Z,101706.38
2022-12-03T16:22:03.864Z,101704.63
2022-12-03T16:24:30.838Z,101702.91
2022-12-03T16:26:57.829Z,101713.09
2022-12-03T16:29:24.900Z,101708.81
2022-12-03T16:31:52.223Z,101709.69
2022-12-03T16:34:19.285Z,101707.91
2022-12-03T16:36:46.424Z,101706.13
2022-12-03T16:39:13.772Z,101706.22
2022-12-03T16:41:40.747Z,101701.19
2022-12-03T16:44:08.198Z,101689.22
2022-12-03T16:46:35.233Z,101697.72
2022-12-03T16:49:03.767Z,101696.97
2022-12-03T16:51:30.817Z,101697.56
2022-12-03T16:53:57.770Z,101696.81
2022-12-03T16:56:24.747Z,101693.41
2022-12-03T16:58:51.744Z,101693.34
2022-12-03T17:01:18.881Z,101690.72
2022-12-03T17:03:45.980Z,101690.09
2022-12-03T17:06:13.132Z,101694.25
2022-12-03T17:08:44.399Z,101697.53
2022-12-03T17:11:14.482Z,101701.03
2022-12-03T17:13:41.788Z,101695.13
2022-12-03T17:16:09.123Z,101697.56
2022-12-03T17:18:36.140Z,101689.94
2022-12-03T17:21:03.160Z,101699.13
2022-12-03T17:23:30.151Z,101698.47
2022-12-03T17:25:57.186Z,101697.38
2022-12-03T17:28:24.211Z,101694.88
2022-12-03T17:30:51.269Z,101697.41
2022-12-03T17:33:18.341Z,101694.03
2022-12-03T17:35:46.502Z,101690.53
2022-12-03T17:38:13.543Z,101685.53
2022-12-03T17:40:43.388Z,101689.72
2022-12-03T17:43:10.341Z,101682.88
2022-12-03T17:45:37.359Z,101680.38
2022-12-03T17:48:04.733Z,101687.34
2022-12-03T17:50:31.722Z,101680.44
2022-12-03T17:52:58.724Z,101688.22
2022-12-03T17:55:34.651Z,101689.84
2022-12-03T17:58:05.425Z,101689.06
2022-12-03T18:00:33.264Z,101688.00
2022-12-03T18:03:00.432Z,101687.38
2022-12-03T18:05:27.442Z,101687.97
2022-12-03T18:07:54.501Z,101687.19
2022-12-03T18:10:22.574Z,101691.63
2022-12-03T18:12:49.557Z,101688.16
2022-12-03T18:15:16.649Z,101691.66
2022-12-03T18:17:43.643Z,101692.38
2022-12-03T18:20:10.747Z,101683.00
2022-12-03T18:22:38.048Z,101690.69
2022-12-03T18:25:06.662Z,101685.31
2022-12-03T18:27:34.118Z,101690.66
2022-12-03T18:30:01.207Z,101682.97
2022-12-03T18:32:29.700Z,101682.13
2022-12-03T18:34:58.152Z,101677.81
2022-12-03T18:37:29.175Z,101675.28
2022-12-03T18:39:57.716Z,101685.53
2022-12-03T18:42:25.981Z,101674.41
2022-12-03T18:44:56.208Z,101673.56
2022-12-03T18:47:28.844Z,101676.91
2022-12-03T18:49:57.048Z,101680.50
2022-12-03T18:52:25.061Z,101682.13
2022-12-03T18:54:52.871Z,101676.91
2022-12-03T18:57:19.933Z,101682.00
2022-12-03T18:59:46.951Z,101686.19
2022-12-03T19:05:08.901Z,101684.63
2022-12-03T19:07:36.029Z,101683.56
2022-12-03T19:10:03.766Z,101683.00
2022-12-03T19:12:31.164Z,101682.06
2022-12-03T19:14:58.202Z,101688.84
2022-12-03T19:17:26.990Z,101694.75
2022-12-03T19:19:54.972Z,101692.31
2022-12-03T19:22:23.318Z,101693.94
2022-12-03T19:24:50.801Z,101692.19
2022-12-03T19:27:18.011Z,101682.78
2022-12-03T19:29:48.745Z,101693.97
2022-12-03T19:32:15.750Z,101698.19
2022-12-03T19:34:42.784Z,101693.91
2022-12-03T19:37:09.790Z,101696.50
2022-12-03T19:39:36.841Z,101694.84
2022-12-03T19:42:04.163Z,101691.38
2022-12-03T19:44:31.249Z,101694.75
2022-12-03T19:46:58.229Z,101698.22
2022-12-03T19:49:25.297Z,101698.97
2022-12-03T19:51:52.386Z,101690.50
2022-12-03T19:54:19.618Z,101698.88
2022-12-03T19:56:46.642Z,101697.31
2022-12-03T19:59:14.219Z,101692.97
2022-12-03T20:01:43.226Z,101698.78
2022-12-03T20:04:11.941Z,101697.03
2022-12-03T20:06:41.794Z,101691.25
2022-12-03T20:09:17.527Z,101691.16
2022-12-03T20:11:45.779Z,101685.22
2022-12-03T20:14:16.774Z,101690.34
2022-12-03T20:16:45.252Z,101692.00
2022-12-03T20:19:16.089Z,101683.56
2022-12-03T20:21:44.836Z,101685.25
2022-12-03T20:24:17.088Z,101683.50
2022-12-03T20:26:44.447Z,101686.88
2022-12-03T20:29:11.916Z,101691.25
2022-12-03T20:31:39.164Z,101690.34
2022-12-03T20:34:07.083Z,101690.41
2022-12-03T20:36:37.020Z,101689.53
2022-12-03T20:39:07.924Z,101685.34
2022-12-03T20:41:36.854Z,101692.09
2022-12-03T20:44:07.291Z,101686.94
2022-12-03T20:46:34.807Z,101698.06
2022-12-03T20:49:01.955Z,101695.38
2022-12-03T20:51:31.588Z,101696.31
2022-12-03T20:54:00.674Z,101692.91
2022-12-03T20:56:35.618Z,101701.34
2022-12-03T20:59:07.545Z,101702.31
2022-12-03T21:01:36.018Z,101700.63
2022-12-03T21:04:04.653Z,101697.19
2022-12-03T21:06:34.183Z,101689.53
2022-12-03T21:09:02.481Z,101694.38
2022-12-03T21:11:32.066Z,101693.69
2022-12-03T21:14:00.620Z,101685.19
2022-12-03T21:19:20.917Z,101694.56
2022-12-03T21:21:48.537Z,101695.38
2022-12-03T21:24:15.598Z,101693.69
2022-12-03T21:26:42.718Z,101696.28
2022-12-03T21:29:09.824Z,101693.78
2022-12-03T21:31:38.345Z,101689.47
2022-12-03T21:34:05.411Z,101686.03
2022-12-03T21:36:32.516Z,101687.75
2022-12-03T21:38:59.606Z,101686.75
2022-12-03T21:41:26.824Z,101680.06
2022-12-03T21:43:53.889Z,101674.03
2022-12-03T21:47:10.159Z,101673.19
2022-12-03T21:49:08.104Z,101678.31
2022-12-03T21:51:35.195Z,101677.44
2022-12-03T21:54:02.353Z,101671.50
2022-12-03T21:56:31.977Z,101667.25
2022-12-03T21:58:59.004Z,101667.13
2022-12-03T22:01:26.315Z,101663.69
2022-12-03T22:03:53.469Z,101669.78
2022-12-03T22:06:21.232Z,101679.06
2022-12-03T22:08:49.244Z,101672.22
2022-12-03T22:11:23.578Z,101674.97
2022-12-03T22:13:51.374Z,101675.63
2022-12-03T22:16:21.476Z,101669.56
2022-12-03T22:18:48.854Z,101675.53
2022-12-03T22:21:20.345Z,101671.53
2022-12-03T22:23:47.454Z,101671.44
2022-12-03T22:26:18.409Z,101667.91
2022-12-03T22:28:50.078Z,101661.94
2022-12-03T22:31:18.685Z,101661.19
2022-12-03T22:33:48.289Z,101659.41
2022-12-03T22:36:21.647Z,101662.84
2022-12-03T22:38:50.817Z,101660.31
2022-12-03T22:41:20.268Z,101660.31
2022-12-03T22:43:48.621Z,101659.38
2022-12-03T22:46:17.192Z,101651.78
2022-12-03T22:48:46.620Z,101650.94
2022-12-03T22:51:24.545Z,101640.72
2022-12-03T22:53:58.163Z,101648.34
2022-12-03T22:56:27.671Z,101654.31
2022-12-03T22:58:55.582Z,101650.84
2022-12-03T23:01:31.408Z,101652.50
2022-12-03T23:03:59.210Z,101645.66
2022-12-03T23:06:27.622Z,101640.50
2022-12-03T23:08:55.648Z,101634.44
2022-12-03T23:11:22.843Z,101643.97
2022-12-03T23:13:50.368Z,101639.66
2022-12-03T23:16:26.688Z,101637.09
2022-12-03T23:18:54.321Z,101631.78
2022-12-03T23:21:29.775Z,101637.09
2022-12-03T23:23:59.909Z,101640.47
2022-12-03T23:26:28.275Z,101635.22
2022-12-03T23:28:55.556Z,101636.19
2022-12-03T23:31:31.299Z,101633.50
2022-12-03T23:33:59.271Z,101633.69
2022-12-03T23:36:30.126Z,101637.22
2022-12-03T23:38:57.325Z,101630.31
2022-12-03T23:41:25.214Z,101630.25
2022-12-03T23:43:52.875Z,101617.56
2022-12-03T23:46:27.326Z,101629.50
2022-12-03T23:48:55.037Z,101615.72
2022-12-03T23:51:24.585Z,101612.47
2022-12-03T23:53:54.087Z,101612.41
2022-12-03T23:56:27.579Z,101616.69
2022-12-03T23:58:54.763Z,101611.44
